createdAt,value
2022-07-29T00:02:26.561Z,1.95
2022-07-29T00:04:53.497Z,2.38
2022-07-29T00:07:20.348Z,1.77
2022-07-29T00:09:51.951Z,1.67
2022-07-29T00:12:26.235Z,1.92
2022-07-29T00:14:57.532Z,1.95
2022-07-29T00:17:27.411Z,2.45
2022-07-29T00:19:54.195Z,2.15
2022-07-29T00:22:21.586Z,1.80
2022-07-29T00:24:50.229Z,2.20
2022-07-29T00:27:17.910Z,1.98
2022-07-29T00:29:44.529Z,1.90
2022-07-29T00:32:11.156Z,2.33
2022-07-29T00:34:56.609Z,2.15
2022-07-29T00:37:23.401Z,2.00
2022-07-29T00:39:50.202Z,2.15
2022-07-29T00:42:17.575Z,2.00
2022-07-29T00:44:44.868Z,2.10
2022-07-29T00:47:12.963Z,2.53
2022-07-29T00:49:43.335Z,3.10
2022-07-29T00:52:11.489Z,2.92
2022-07-29T00:54:44.182Z,2.22
2022-07-29T00:57:12.625Z,2.60
2022-07-29T00:59:39.344Z,2.55
2022-07-29T01:02:06.508Z,2.60
2022-07-29T01:04:33.979Z,2.13
2022-07-29T01:07:03.016Z,3.15
2022-07-29T01:09:42.787Z,3.00
2022-07-29T01:12:18.343Z,2.38
2022-07-29T01:14:46.788Z,2.38
2022-07-29T01:19:57.092Z,2.75
2022-07-29T01:22:35.879Z,2.20
2022-07-29T01:25:35.552Z,3.05
2022-07-29T01:28:18.493Z,2.78
2022-07-29T01:30:47.784Z,2.70
2022-07-29T01:33:38.426Z,2.60
2022-07-29T01:36:11.824Z,2.72
2022-07-29T01:38:42.468Z,2.70
2022-07-29T01:41:17.581Z,2.55
2022-07-29T01:43:55.792Z,2.25
2022-07-29T01:46:33.053Z,3.33
2022-07-29T01:49:07.905Z,2.13
2022-07-29T01:51:42.870Z,2.75
2022-07-29T01:54:22.132Z,2.63
2022-07-29T01:56:52.012Z,2.55
2022-07-29T01:59:20.097Z,3.17
2022-07-29T02:01:49.536Z,2.50
2022-07-29T02:04:28.906Z,2.60
2022-07-29T02:07:02.012Z,2.78
2022-07-29T02:09:31.322Z,3.10
2022-07-29T02:12:00.565Z,3.00
2022-07-29T02:14:31.504Z,2.47
2022-07-29T02:17:02.048Z,3.17
2022-07-29T02:19:30.396Z,2.80
2022-07-29T02:21:58.668Z,3.30
2022-07-29T02:24:27.485Z,2.75
2022-07-29T02:26:57.462Z,3.17
2022-07-29T02:29:27.241Z,3.30
2022-07-29T02:31:56.349Z,3.17
2022-07-29T02:34:24.430Z,2.58
2022-07-29T02:36:52.551Z,2.45
2022-07-29T02:39:20.671Z,2.60
2022-07-29T02:41:56.230Z,2.50
2022-07-29T02:44:27.327Z,3.28
2022-07-29T02:47:41.871Z,2.53
2022-07-29T02:50:12.454Z,3.05
2022-07-29T02:52:45.061Z,2.92
2022-07-29T02:55:20.192Z,2.97
2022-07-29T02:58:02.517Z,2.42
2022-07-29T03:00:32.522Z,3.85
2022-07-29T03:03:03.301Z,3.45
2022-07-29T03:05:30.766Z,3.05
2022-07-29T03:08:02.173Z,3.33
2022-07-29T03:10:29.373Z,2.85
2022-07-29T03:12:57.526Z,2.97
2022-07-29T03:15:26.865Z,3.10
2022-07-29T03:17:54.825Z,3.58
2022-07-29T03:20:22.056Z,4.35
2022-07-29T03:22:49.135Z,3.35
2022-07-29T03:25:17.512Z,3.17
2022-07-29T03:27:45.320Z,2.97
2022-07-29T03:30:18.320Z,3.08
2022-07-29T03:32:48.673Z,3.50
2022-07-29T03:35:17.616Z,2.85
2022-07-29T03:37:47.823Z,2.90
2022-07-29T03:40:36.847Z,2.90
2022-07-29T03:43:04.631Z,2.40
2022-07-29T03:45:32.894Z,2.85
2022-07-29T03:48:03.300Z,2.70
2022-07-29T03:50:31.695Z,3.00
2022-07-29T03:52:59.127Z,2.15
2022-07-29T03:55:27.577Z,2.67
2022-07-29T04:00:21.559Z,2.30
2022-07-29T04:02:49.816Z,2.47
2022-07-29T04:07:45.939Z,2.47
2022-07-29T04:10:12.835Z,2.97
2022-07-29T04:12:39.605Z,2.75
2022-07-29T04:15:06.802Z,2.70
2022-07-29T04:17:33.428Z,2.08
2022-07-29T04:20:00.217Z,2.25
2022-07-29T04:22:26.890Z,2.72
2022-07-29T04:24:54.214Z,1.80
2022-07-29T04:27:20.808Z,2.33
2022-07-29T04:29:57.389Z,2.65
2022-07-29T04:32:25.140Z,2.35
2022-07-29T04:34:51.937Z,2.63
2022-07-29T04:37:18.592Z,2.80
2022-07-29T04:39:45.417Z,2.72
2022-07-29T04:42:12.086Z,2.88
2022-07-29T04:44:42.985Z,2.80
2022-07-29T04:47:10.474Z,3.08
2022-07-29T04:49:39.681Z,3.78
2022-07-29T04:52:07.197Z,4.05
2022-07-29T04:54:34.269Z,2.90
2022-07-29T04:57:00.931Z,3.88
2022-07-29T04:59:28.067Z,3.78
2022-07-29T05:01:55.049Z,4.28
2022-07-29T05:04:21.781Z,3.60
2022-07-29T05:06:48.675Z,3.75
2022-07-29T05:09:15.430Z,4.10
2022-07-29T05:11:42.224Z,4.00
2022-07-29T05:14:08.843Z,3.67
2022-07-29T05:16:36.222Z,4.03
2022-07-29T05:19:02.862Z,3.45
2022-07-29T05:21:29.887Z,3.03
2022-07-29T05:23:56.486Z,3.63
2022-07-29T05:26:23.217Z,3.70
2022-07-29T05:28:50.294Z,3.63
2022-07-29T05:31:17.469Z,4.57
2022-07-29T05:33:44.333Z,4.45
2022-07-29T05:36:11.130Z,4.38
2022-07-29T05:38:37.779Z,4.28
2022-07-29T05:41:07.733Z,4.07
2022-07-29T05:43:34.324Z,3.83
2022-07-29T05:46:01.507Z,3.70
2022-07-29T05:48:28.308Z,4.63
2022-07-29T05:50:55.466Z,3.70
2022-07-29T05:53:22.157Z,4.93
2022-07-29T05:55:49.837Z,4.05
2022-07-29T05:58:16.596Z,3.85
2022-07-29T06:00:43.154Z,4.95
2022-07-29T06:03:09.755Z,4.00
2022-07-29T06:05:36.329Z,4.20
2022-07-29T06:08:04.020Z,3.33
2022-07-29T06:10:30.664Z,3.40
2022-07-29T06:12:57.482Z,3.03
2022-07-29T06:15:24.048Z,3.45
2022-07-29T06:18:00.307Z,3.58
2022-07-29T06:20:31.136Z,3.67
2022-07-29T06:22:58.571Z,3.22
2022-07-29T06:25:25.119Z,3.13
2022-07-29T06:27:51.667Z,3.35
2022-07-29T06:30:18.276Z,3.92
2022-07-29T06:32:44.854Z,3.40
2022-07-29T06:35:37.795Z,3.33
2022-07-29T06:37:59.666Z,3.30
2022-07-29T06:40:45.229Z,3.05
2022-07-29T06:43:11.834Z,3.67
2022-07-29T06:45:42.150Z,3.47
2022-07-29T06:48:09.127Z,3.17
2022-07-29T06:50:35.735Z,2.42
2022-07-29T06:53:02.421Z,2.83
2022-07-29T06:55:29.010Z,3.25
2022-07-29T06:57:55.641Z,2.83
2022-07-29T07:00:22.314Z,3.08
2022-07-29T07:02:49.047Z,3.40
2022-07-29T07:05:15.632Z,3.90
2022-07-29T07:07:42.278Z,3.42
2022-07-29T07:10:09.289Z,3.55
2022-07-29T07:12:35.883Z,3.25
2022-07-29T07:15:02.601Z,3.42
2022-07-29T07:17:29.175Z,2.87
2022-07-29T07:19:56.012Z,3.00
2022-07-29T07:22:22.614Z,2.83
2022-07-29T07:24:49.233Z,3.00
2022-07-29T07:27:15.807Z,2.97
2022-07-29T07:29:44.009Z,4.37
2022-07-29T07:32:11.224Z,2.65
2022-07-29T07:34:39.040Z,2.78
2022-07-29T07:37:06.628Z,2.88
2022-07-29T07:42:00.101Z,2.92
2022-07-29T07:44:26.930Z,3.92
2022-07-29T07:46:54.662Z,3.75
2022-07-29T07:49:21.806Z,4.30
2022-07-29T07:51:50.680Z,4.80
2022-07-29T07:54:20.526Z,4.45
2022-07-29T07:56:50.332Z,4.70
2022-07-29T07:59:19.808Z,4.63
2022-07-29T08:01:48.089Z,3.43
2022-07-29T08:04:26.890Z,3.78
2022-07-29T08:06:57.790Z,4.75
2022-07-29T08:09:29.675Z,4.47
2022-07-29T08:11:58.589Z,7.88
2022-07-29T08:14:25.305Z,4.78
2022-07-29T08:16:52.590Z,3.70
2022-07-29T08:19:19.341Z,3.80
2022-07-29T08:21:46.372Z,3.30
2022-07-29T08:24:31.587Z,3.97
2022-07-29T08:26:58.400Z,3.63
2022-07-29T08:29:25.068Z,3.78
2022-07-29T08:31:52.177Z,3.17
2022-07-29T08:36:52.664Z,3.40
2022-07-29T08:39:19.268Z,3.45
2022-07-29T08:41:56.868Z,3.38
2022-07-29T08:44:30.600Z,3.22
2022-07-29T08:46:57.996Z,3.15
2022-07-29T08:49:24.807Z,3.25
2022-07-29T08:51:52.706Z,3.35
2022-07-29T08:54:19.975Z,4.10
2022-07-29T08:59:19.430Z,4.55
2022-07-29T09:01:48.920Z,4.38
2022-07-29T09:04:17.322Z,5.18
2022-07-29T09:06:47.278Z,9.07
2022-07-29T09:09:14.736Z,3.97
2022-07-29T09:11:43.217Z,4.55
2022-07-29T09:14:12.298Z,3.65
2022-07-29T09:16:53.411Z,3.22
2022-07-29T09:19:35.776Z,2.50
2022-07-29T09:22:08.193Z,3.60
2022-07-29T09:24:35.349Z,4.35
2022-07-29T09:27:03.023Z,3.03
2022-07-29T09:29:33.297Z,2.88
2022-07-29T09:32:07.655Z,2.90
2022-07-29T09:34:34.390Z,6.35
2022-07-29T09:37:00.965Z,6.65
2022-07-29T09:39:34.937Z,3.40
2022-07-29T09:42:04.738Z,3.30
2022-07-29T09:44:49.184Z,3.65
2022-07-29T09:47:17.262Z,3.15
2022-07-29T09:50:01.165Z,3.13
2022-07-29T09:52:28.969Z,3.15
2022-07-29T09:55:09.420Z,3.25
2022-07-29T09:57:37.683Z,2.95
2022-07-29T10:00:09.627Z,3.00
2022-07-29T10:02:38.331Z,3.47
2022-07-29T10:05:07.383Z,3.50
2022-07-29T10:07:54.194Z,3.55
2022-07-29T10:10:24.937Z,3.78
2022-07-29T10:12:57.574Z,3.47
2022-07-29T10:15:29.324Z,3.72
2022-07-29T10:17:57.329Z,3.40
2022-07-29T10:20:24.870Z,4.43
2022-07-29T10:25:21.608Z,3.80
2022-07-29T10:27:49.536Z,3.88
2022-07-29T10:30:17.544Z,3.40
2022-07-29T10:32:59.089Z,3.15
2022-07-29T10:35:45.314Z,3.33
2022-07-29T10:38:28.784Z,3.42
2022-07-29T10:41:36.269Z,3.35
2022-07-29T10:44:19.365Z,3.27
2022-07-29T10:46:46.914Z,4.72
2022-07-29T10:49:16.392Z,3.60
2022-07-29T10:52:13.126Z,3.50
2022-07-29T10:54:46.192Z,3.50
2022-07-29T10:57:53.489Z,3.63
2022-07-29T11:00:28.154Z,3.20
2022-07-29T11:02:57.570Z,3.65
2022-07-29T11:05:32.189Z,3.50
2022-07-29T11:08:21.038Z,3.30
2022-07-29T11:11:15.736Z,3.63
2022-07-29T11:13:51.515Z,3.60
2022-07-29T11:16:23.076Z,3.45
2022-07-29T11:19:14.074Z,3.53
2022-07-29T11:21:54.145Z,3.47
2022-07-29T11:24:32.178Z,3.40
2022-07-29T11:27:20.966Z,3.77
2022-07-29T11:29:50.740Z,3.75
2022-07-29T11:32:23.173Z,3.67
2022-07-29T11:35:16.619Z,4.13
2022-07-29T11:37:50.802Z,3.47
2022-07-29T11:40:22.992Z,3.15
2022-07-29T11:45:42.155Z,3.70
2022-07-29T11:48:29.901Z,4.22
2022-07-29T11:50:59.627Z,3.60
2022-07-29T11:53:28.960Z,3.45
2022-07-29T11:56:00.208Z,3.20
2022-07-29T11:58:28.325Z,3.53
2022-07-29T12:00:56.302Z,4.38
2022-07-29T12:03:35.455Z,3.80
2022-07-29T12:06:12.262Z,3.60
2022-07-29T12:08:44.469Z,3.65
2022-07-29T12:11:21.275Z,3.75
2022-07-29T12:13:49.227Z,3.75
2022-07-29T12:16:16.706Z,3.30
2022-07-29T12:19:00.333Z,3.67
2022-07-29T12:21:28.732Z,4.03
2022-07-29T12:24:01.858Z,4.22
2022-07-29T12:26:31.815Z,4.28
2022-07-29T12:29:03.109Z,3.50
2022-07-29T12:31:41.954Z,3.50
2022-07-29T12:34:12.893Z,4.25
2022-07-29T12:36:39.590Z,3.85
2022-07-29T12:39:06.327Z,4.32
2022-07-29T12:41:33.335Z,4.23
2022-07-29T12:43:59.984Z,4.60
2022-07-29T12:46:27.083Z,4.05
2022-07-29T12:48:59.744Z,4.30
2022-07-29T12:51:44.425Z,4.05
2022-07-29T12:54:14.422Z,4.47
2022-07-29T12:56:44.174Z,4.40
2022-07-29T12:59:19.864Z,4.60
2022-07-29T13:01:51.749Z,3.72
2022-07-29T13:04:32.866Z,3.75
2022-07-29T13:07:04.930Z,4.75
2022-07-29T13:10:30.438Z,3.95
2022-07-29T13:13:07.014Z,4.00
2022-07-29T13:15:34.370Z,3.83
2022-07-29T13:18:01.493Z,5.25
2022-07-29T13:20:33.637Z,4.03
2022-07-29T13:23:01.655Z,3.63
2022-07-29T13:25:33.042Z,4.25
2022-07-29T13:28:00.728Z,4.00
2022-07-29T13:32:54.410Z,3.73
2022-07-29T13:35:21.402Z,4.07
2022-07-29T13:37:48.248Z,3.90
2022-07-29T13:40:15.700Z,3.97
2022-07-29T13:42:43.040Z,3.60
2022-07-29T13:45:11.765Z,3.97
2022-07-29T13:47:38.839Z,4.18
2022-07-29T13:50:07.016Z,4.53
2022-07-29T13:52:34.468Z,5.07
2022-07-29T13:55:01.205Z,4.10
2022-07-29T13:57:28.036Z,3.30
2022-07-29T13:59:54.802Z,3.93
2022-07-29T14:02:25.474Z,4.03
2022-07-29T14:04:55.701Z,4.18
2022-07-29T14:07:23.154Z,4.30
2022-07-29T14:09:49.902Z,6.40
2022-07-29T14:12:16.883Z,3.97
2022-07-29T14:14:47.304Z,4.18
2022-07-29T14:17:14.307Z,4.00
2022-07-29T14:19:41.008Z,3.80
2022-07-29T14:22:09.633Z,4.07
2022-07-29T14:24:38.264Z,4.78
2022-07-29T14:27:06.872Z,4.10
2022-07-29T14:29:37.803Z,3.88
2022-07-29T14:32:11.379Z,3.63
2022-07-29T14:34:38.782Z,4.03
2022-07-29T14:37:06.968Z,4.10
2022-07-29T14:39:42.641Z,4.13
2022-07-29T14:42:12.634Z,4.28
2022-07-29T14:44:39.942Z,4.03
2022-07-29T14:47:08.040Z,3.50
2022-07-29T14:49:35.861Z,3.90
2022-07-29T14:52:02.927Z,3.97
2022-07-29T14:54:29.544Z,3.90
2022-07-29T14:56:58.168Z,4.07
2022-07-29T14:59:25.583Z,4.07
2022-07-29T15:01:52.303Z,4.17
2022-07-29T15:04:18.978Z,3.97
2022-07-29T15:06:45.529Z,4.57
2022-07-29T15:09:12.146Z,4.68
2022-07-29T15:11:39.024Z,4.72
2022-07-29T15:14:06.739Z,4.57
2022-07-29T15:16:33.814Z,4.70
2022-07-29T15:19:01.196Z,4.40
2022-07-29T15:21:28.547Z,4.30
2022-07-29T15:23:55.219Z,4.53
2022-07-29T15:26:22.094Z,4.50
2022-07-29T15:28:48.903Z,4.30
2022-07-29T15:31:16.055Z,5.05
2022-07-29T15:33:42.957Z,4.20
2022-07-29T15:36:09.671Z,5.47
2022-07-29T15:38:40.488Z,5.15
2022-07-29T15:41:08.986Z,4.70
2022-07-29T15:43:38.858Z,4.82
2022-07-29T15:46:23.836Z,4.43
2022-07-29T15:48:50.611Z,4.40
2022-07-29T15:51:17.325Z,4.43
2022-07-29T15:53:43.970Z,4.72
2022-07-29T15:56:20.960Z,4.47
2022-07-29T15:58:47.639Z,4.78
2022-07-29T16:01:14.727Z,4.22
2022-07-29T16:03:45.966Z,4.67
2022-07-29T16:06:13.555Z,4.43
2022-07-29T16:08:40.267Z,4.20
2022-07-29T16:11:07.033Z,4.50
2022-07-29T16:13:33.804Z,5.07
2022-07-29T16:16:02.653Z,4.63
2022-07-29T16:18:30.649Z,4.50
2022-07-29T16:20:57.756Z,4.50
2022-07-29T16:23:24.781Z,4.78
2022-07-29T16:25:59.577Z,6.18
2022-07-29T16:28:27.910Z,6.97
2022-07-29T16:30:54.655Z,7.70
2022-07-29T16:33:21.213Z,7.55
2022-07-29T16:35:47.981Z,7.10
2022-07-29T16:38:14.672Z,8.15
2022-07-29T16:40:42.116Z,6.85
2022-07-29T16:43:09.096Z,6.20
2022-07-29T16:45:42.559Z,6.60
2022-07-29T16:48:15.458Z,5.50
2022-07-29T16:50:44.927Z,5.82
2022-07-29T16:53:11.664Z,4.85
2022-07-29T16:55:38.670Z,5.03
2022-07-29T16:58:09.599Z,5.68
2022-07-29T17:00:36.592Z,5.38
2022-07-29T17:03:03.339Z,6.20
2022-07-29T17:05:29.918Z,5.90
2022-07-29T17:08:16.808Z,5.55
2022-07-29T17:10:43.416Z,5.63
2022-07-29T17:13:10.898Z,5.75
2022-07-29T17:15:37.539Z,6.32
2022-07-29T17:18:12.658Z,7.03
2022-07-29T17:20:42.036Z,7.22
2022-07-29T17:23:08.833Z,6.78
2022-07-29T17:25:35.571Z,5.63
2022-07-29T17:28:02.213Z,5.25
2022-07-29T17:30:29.803Z,5.20
2022-07-29T17:32:56.503Z,6.20
2022-07-29T17:35:41.748Z,5.82
2022-07-29T17:38:08.359Z,6.97
2022-07-29T17:40:34.985Z,8.45
2022-07-29T17:43:01.555Z,8.52
2022-07-29T17:45:50.303Z,8.32
2022-07-29T17:48:14.807Z,10.32
2022-07-29T17:50:41.445Z,7.93
2022-07-29T17:53:09.586Z,8.80
2022-07-29T17:55:45.210Z,8.50
2022-07-29T17:58:12.487Z,8.20
2022-07-29T18:00:39.353Z,9.13
2022-07-29T18:03:06.344Z,8.95
2022-07-29T18:05:33.145Z,7.65
2022-07-29T18:07:59.738Z,9.25
2022-07-29T18:10:26.588Z,8.77
2022-07-29T18:12:53.477Z,10.38
2022-07-29T18:15:20.259Z,9.93
2022-07-29T18:17:57.326Z,7.38
2022-07-29T18:20:26.219Z,6.47
2022-07-29T18:25:19.512Z,5.72
2022-07-29T18:27:46.230Z,5.78
2022-07-29T18:30:14.965Z,5.90
2022-07-29T18:32:54.306Z,5.60
2022-07-29T18:35:28.884Z,5.10
2022-07-29T18:38:02.111Z,4.57
2022-07-29T18:40:29.983Z,4.72
2022-07-29T18:42:57.071Z,4.35
2022-07-29T18:45:28.313Z,4.55
2022-07-29T18:47:55.815Z,4.13
2022-07-29T18:50:28.892Z,4.47
2022-07-29T18:52:58.508Z,4.40
2022-07-29T18:55:26.208Z,4.18
2022-07-29T18:57:55.806Z,4.93
2022-07-29T19:00:23.912Z,4.45
2022-07-29T19:02:51.111Z,4.60
2022-07-29T19:05:22.385Z,4.90
2022-07-29T19:07:49.094Z,6.57
2022-07-29T19:10:15.684Z,5.10
2022-07-29T19:12:42.487Z,4.75
2022-07-29T19:15:10.588Z,4.47
2022-07-29T19:17:38.035Z,4.70
2022-07-29T19:20:05.708Z,4.00
2022-07-29T19:22:34.318Z,3.85
2022-07-29T19:25:01.191Z,5.00
2022-07-29T19:27:27.884Z,4.55
2022-07-29T19:29:59.006Z,4.07
2022-07-29T19:32:26.479Z,5.00
2022-07-29T19:35:11.590Z,5.32
2022-07-29T19:37:38.153Z,5.70
2022-07-29T19:40:06.642Z,5.18
2022-07-29T19:42:33.780Z,4.55
2022-07-29T19:45:00.372Z,5.38
2022-07-29T19:47:27.063Z,4.70
2022-07-29T19:49:53.740Z,3.92
2022-07-29T19:52:20.384Z,4.85
2022-07-29T19:54:47.088Z,5.57
2022-07-29T19:57:13.644Z,5.38
2022-07-29T19:59:41.047Z,6.53
2022-07-29T20:02:10.857Z,6.72
2022-07-29T20:04:37.880Z,8.30
2022-07-29T20:07:05.317Z,6.53
2022-07-29T20:09:31.927Z,7.38
2022-07-29T20:11:58.796Z,5.05
2022-07-29T20:14:25.417Z,6.65
2022-07-29T20:16:54.433Z,5.10
2022-07-29T20:19:21.369Z,5.18
2022-07-29T20:21:48.069Z,5.00
2022-07-29T20:24:14.791Z,4.30
2022-07-29T20:26:41.257Z,4.47
2022-07-29T20:29:08.296Z,4.90
2022-07-29T20:31:36.386Z,4.40
2022-07-29T20:34:03.321Z,4.65
2022-07-29T20:36:32.725Z,4.15
2022-07-29T20:39:02.272Z,4.07
2022-07-29T20:41:29.178Z,5.07
2022-07-29T20:43:56.297Z,4.70
2022-07-29T20:46:28.355Z,3.80
2022-07-29T20:48:55.317Z,3.95
2022-07-29T20:51:24.504Z,5.03
2022-07-29T20:53:51.255Z,3.75
2022-07-29T20:56:18.031Z,3.83
2022-07-29T20:58:44.786Z,4.55
2022-07-29T21:01:11.703Z,3.97
2022-07-29T21:03:38.346Z,4.38
2022-07-29T21:06:05.025Z,4.97
2022-07-29T21:08:34.030Z,4.75
2022-07-29T21:11:01.053Z,6.20
2022-07-29T21:13:27.927Z,5.13
2022-07-29T21:15:59.089Z,5.68
2022-07-29T21:18:33.027Z,4.93
2022-07-29T21:21:04.018Z,5.47
2022-07-29T21:23:31.090Z,5.72
2022-07-29T21:25:58.450Z,4.82
2022-07-29T21:28:29.006Z,6.07
2022-07-29T21:31:00.939Z,5.50
2022-07-29T21:33:29.381Z,5.93
2022-07-29T21:38:42.961Z,3.63
2022-07-29T21:41:12.490Z,4.25
2022-07-29T21:43:41.941Z,3.47
2022-07-29T21:46:09.540Z,3.03
2022-07-29T21:48:37.641Z,3.27
2022-07-29T21:51:06.656Z,3.40
2022-07-29T21:53:33.324Z,3.55
2022-07-29T21:56:00.370Z,3.13
2022-07-29T21:58:26.980Z,3.45
2022-07-29T22:00:54.022Z,2.90
2022-07-29T22:03:21.994Z,3.78
2022-07-29T22:05:49.026Z,3.72
2022-07-29T22:08:15.609Z,3.33
2022-07-29T22:10:42.159Z,2.85
2022-07-29T22:13:09.046Z,3.63
2022-07-29T22:15:35.679Z,3.72
2022-07-29T22:18:02.383Z,3.22
2022-07-29T22:20:29.062Z,3.45
2022-07-29T22:22:55.637Z,3.60
2022-07-29T22:25:23.074Z,3.90
2022-07-29T22:27:49.652Z,3.65
2022-07-29T22:30:16.968Z,3.40
2022-07-29T22:32:44.074Z,3.38
2022-07-29T22:35:10.917Z,3.35
2022-07-29T22:37:37.657Z,3.50
2022-07-29T22:40:05.125Z,3.17
2022-07-29T22:42:31.934Z,3.47
2022-07-29T22:44:58.652Z,3.30
2022-07-29T22:47:46.256Z,3.53
2022-07-29T22:50:12.153Z,3.88
2022-07-29T22:52:38.764Z,3.45
2022-07-29T22:55:05.751Z,3.47
2022-07-29T22:57:32.521Z,3.53
2022-07-29T23:00:01.723Z,3.38
2022-07-29T23:02:28.692Z,3.60
2022-07-29T23:04:55.417Z,4.00
2022-07-29T23:07:22.224Z,7.05
2022-07-29T23:09:48.917Z,4.35
2022-07-29T23:12:15.556Z,4.60
2022-07-29T23:14:42.300Z,4.18
2022-07-29T23:17:08.882Z,4.25
2022-07-29T23:19:35.534Z,4.25
2022-07-29T23:22:02.199Z,5.28
2022-07-29T23:24:28.754Z,4.03
2022-07-29T23:26:55.381Z,4.35
2022-07-29T23:29:22.218Z,3.80
2022-07-29T23:31:48.835Z,3.80
2022-07-29T23:34:15.596Z,3.58
2022-07-29T23:36:42.536Z,3.92
2022-07-29T23:39:13.329Z,4.30
2022-07-29T23:41:40.202Z,3.67
2022-07-29T23:44:07.059Z,4.93
2022-07-29T23:46:33.983Z,4.50
2022-07-29T23:49:00.819Z,4.80
2022-07-29T23:51:29.244Z,4.45
2022-07-29T23:56:23.405Z,3.50
2022-07-29T23:58:50.227Z,4.47
